createdAt,value
2022-12-04T00:00:17.713Z,3.10
2022-12-04T00:03:20.401Z,3.07
2022-12-04T00:06:24.577Z,2.71
2022-12-04T00:09:27.508Z,2.90
2022-12-04T00:12:30.290Z,2.82
2022-12-04T00:15:34.250Z,2.90
2022-12-04T00:18:37.557Z,3.17
2022-12-04T00:21:40.237Z,3.04
2022-12-04T00:24:42.855Z,3.06
2022-12-04T00:27:45.503Z,2.88
2022-12-04T00:30:49.524Z,2.85
2022-12-04T00:33:52.404Z,3.05
2022-12-04T00:36:55.021Z,3.00
2022-12-04T00:39:57.808Z,3.09
2022-12-04T00:43:00.487Z,3.19
2022-12-04T00:46:04.643Z,3.24
2022-12-04T00:49:07.358Z,3.23
2022-12-04T00:52:09.999Z,3.04
2022-12-04T00:55:12.842Z,3.05
2022-12-04T00:58:15.510Z,3.15
2022-12-04T01:01:21.547Z,3.12
2022-12-04T01:04:24.241Z,3.18
2022-12-04T01:07:26.933Z,3.21
2022-12-04T01:10:29.588Z,3.18
2022-12-04T01:13:32.236Z,3.24
2022-12-04T01:16:38.201Z,3.05
2022-12-04T01:19:41.053Z,3.07
2022-12-04T01:22:43.908Z,2.43
2022-12-04T01:25:53.726Z,3.01
2022-12-04T01:28:56.544Z,3.18
2022-12-04T01:32:00.627Z,3.22
2022-12-04T01:35:03.362Z,3.31
2022-12-04T01:38:05.993Z,3.38
2022-12-04T01:41:10.538Z,3.23
2022-12-04T01:44:16.975Z,3.08
2022-12-04T01:47:20.953Z,3.12
2022-12-04T01:50:23.864Z,2.94
2022-12-04T01:53:27.271Z,3.06
2022-12-04T01:56:37.798Z,3.24
2022-12-04T01:59:44.664Z,3.12
2022-12-04T02:02:49.470Z,3.02
2022-12-04T02:05:52.122Z,3.26
2022-12-04T02:08:54.974Z,3.22
2022-12-04T02:12:08.390Z,3.22
2022-12-04T02:15:17.928Z,2.73
2022-12-04T02:18:30.600Z,2.67
2022-12-04T02:21:36.938Z,2.22
2022-12-04T02:24:53.215Z,2.92
2022-12-04T02:28:06.044Z,2.99
2022-12-04T02:31:17.951Z,2.61
2022-12-04T02:34:27.296Z,3.06
2022-12-04T02:37:34.047Z,3.13
2022-12-04T02:40:43.151Z,3.20
2022-12-04T02:43:51.244Z,3.11
2022-12-04T02:46:58.890Z,3.14
2022-12-04T02:50:06.984Z,3.07
2022-12-04T02:53:13.877Z,3.08
2022-12-04T02:56:21.023Z,3.02
2022-12-04T02:59:31.236Z,3.20
2022-12-04T03:02:38.990Z,3.25
2022-12-04T03:05:49.336Z,3.30
2022-12-04T03:08:57.760Z,3.35
2022-12-04T03:12:08.710Z,3.27
2022-12-04T03:15:17.199Z,3.12
2022-12-04T03:18:23.547Z,3.22
2022-12-04T03:21:29.049Z,3.02
2022-12-04T03:24:35.560Z,3.13
2022-12-04T03:27:45.137Z,3.12
2022-12-04T03:30:58.117Z,3.23
2022-12-04T03:34:04.979Z,3.35
2022-12-04T03:37:14.622Z,3.42
2022-12-04T03:40:22.967Z,3.47
2022-12-04T03:43:29.049Z,3.42
2022-12-04T03:46:39.514Z,3.33
2022-12-04T03:49:47.793Z,3.42
2022-12-04T03:52:57.699Z,3.38
2022-12-04T03:56:06.349Z,3.38
2022-12-04T03:59:13.478Z,3.23
2022-12-04T04:02:22.081Z,3.19
2022-12-04T04:05:26.937Z,3.35
2022-12-04T04:08:35.558Z,3.46
2022-12-04T04:11:45.111Z,3.44
2022-12-04T04:15:09.834Z,3.32
2022-12-04T04:18:31.273Z,3.32
2022-12-04T04:22:07.597Z,3.44
2022-12-04T04:25:13.033Z,3.38
2022-12-04T04:28:32.503Z,3.45
2022-12-04T04:31:39.899Z,3.47
2022-12-04T04:34:51.412Z,3.47
2022-12-04T04:38:01.405Z,3.48
2022-12-04T04:41:12.971Z,3.38
2022-12-04T04:44:22.180Z,3.52
2022-12-04T04:47:29.261Z,3.45
2022-12-04T04:50:35.158Z,3.23
2022-12-04T04:53:41.637Z,3.21
2022-12-04T04:56:46.026Z,3.24
2022-12-04T04:59:48.617Z,3.50
2022-12-04T05:02:51.314Z,2.93
2022-12-04T05:05:55.504Z,3.20
2022-12-04T05:08:58.108Z,3.40
2022-12-04T05:12:00.750Z,3.44
2022-12-04T05:15:03.644Z,3.51
2022-12-04T05:18:06.356Z,3.40
2022-12-04T05:21:16.852Z,3.26
2022-12-04T05:24:19.440Z,3.20
2022-12-04T05:27:22.939Z,3.00
2022-12-04T05:30:25.752Z,3.32
2022-12-04T05:33:28.794Z,3.33
2022-12-04T05:36:32.906Z,3.25
2022-12-04T05:39:36.338Z,3.41
2022-12-04T05:42:38.919Z,3.45
2022-12-04T05:45:41.534Z,3.46
2022-12-04T05:48:44.173Z,3.43
2022-12-04T05:51:48.129Z,3.40
2022-12-04T05:54:50.784Z,3.47
2022-12-04T05:57:53.401Z,3.40
2022-12-04T06:00:56.483Z,3.39
2022-12-04T06:03:59.279Z,3.29
2022-12-04T06:07:03.224Z,3.55
2022-12-04T06:10:07.391Z,3.59
2022-12-04T06:13:10.091Z,3.45
2022-12-04T06:16:16.769Z,3.16
2022-12-04T06:19:20.939Z,3.50
2022-12-04T06:22:24.924Z,3.57
2022-12-04T06:25:27.615Z,3.61
2022-12-04T06:28:30.238Z,3.65
2022-12-04T06:31:33.564Z,3.45
2022-12-04T06:34:36.982Z,3.52
2022-12-04T06:37:40.981Z,3.65
2022-12-04T06:40:43.661Z,3.66
2022-12-04T06:43:46.609Z,3.62
2022-12-04T06:46:50.354Z,3.64
2022-12-04T06:49:53.250Z,3.53
2022-12-04T06:52:57.424Z,3.10
2022-12-04T06:56:01.386Z,3.00
2022-12-04T06:59:05.654Z,3.15
2022-12-04T07:02:08.303Z,3.31
2022-12-04T07:05:11.235Z,3.20
2022-12-04T07:08:15.694Z,3.15
2022-12-04T07:11:18.936Z,3.30
2022-12-04T07:14:21.533Z,3.27
2022-12-04T07:17:24.193Z,3.27
2022-12-04T07:20:27.659Z,3.45
2022-12-04T07:23:31.640Z,3.52
2022-12-04T07:26:34.453Z,3.54
2022-12-04T07:29:37.145Z,3.70
2022-12-04T07:32:39.857Z,3.69
2022-12-04T07:35:42.524Z,3.46
2022-12-04T07:38:47.332Z,3.62
2022-12-04T07:41:49.948Z,3.63
2022-12-04T07:44:52.569Z,3.66
2022-12-04T07:47:55.163Z,3.78
2022-12-04T07:51:03.629Z,3.87
2022-12-04T07:54:08.722Z,3.90
2022-12-04T07:57:11.323Z,3.92
2022-12-04T08:00:15.860Z,3.82
2022-12-04T08:03:18.585Z,3.85
2022-12-04T08:06:23.265Z,3.89
2022-12-04T08:09:27.237Z,3.92
2022-12-04T08:12:29.883Z,4.04
2022-12-04T08:15:32.498Z,4.07
2022-12-04T08:18:35.454Z,4.06
2022-12-04T08:21:38.188Z,3.97
2022-12-04T08:24:42.570Z,4.01
2022-12-04T08:27:47.737Z,3.97
2022-12-04T08:30:50.499Z,4.04
2022-12-04T08:33:55.238Z,4.05
2022-12-04T08:36:57.902Z,3.83
2022-12-04T08:40:01.913Z,3.96
2022-12-04T08:43:04.564Z,3.88
2022-12-04T08:46:09.630Z,4.07
2022-12-04T08:49:12.478Z,4.12
2022-12-04T08:52:15.124Z,3.97
2022-12-04T08:55:19.288Z,4.06
2022-12-04T08:58:21.935Z,3.99
2022-12-04T09:01:25.492Z,3.96
2022-12-04T09:04:28.257Z,3.73
2022-12-04T09:07:30.976Z,3.72
2022-12-04T09:10:36.315Z,3.64
2022-12-04T09:13:39.894Z,3.76
2022-12-04T09:16:42.501Z,3.88
2022-12-04T09:19:45.260Z,4.13
2022-12-04T09:23:03.289Z,3.97
2022-12-04T09:26:19.301Z,4.29
2022-12-04T09:29:21.982Z,4.14
2022-12-04T09:32:24.567Z,4.32
2022-12-04T09:35:27.212Z,4.20
2022-12-04T09:38:30.740Z,4.46
2022-12-04T09:41:59.119Z,4.34
2022-12-04T09:45:07.176Z,4.48
2022-12-04T09:48:12.441Z,4.60
2022-12-04T09:51:19.399Z,4.61
2022-12-04T09:54:24.785Z,4.49
2022-12-04T09:57:36.271Z,4.55
2022-12-04T10:00:43.544Z,4.55
2022-12-04T10:03:46.371Z,4.43
2022-12-04T10:06:55.802Z,4.28
2022-12-04T10:10:03.989Z,4.57
2022-12-04T10:13:19.354Z,4.65
2022-12-04T10:16:29.303Z,4.50
2022-12-04T10:19:38.527Z,4.55
2022-12-04T10:22:50.948Z,4.66
2022-12-04T10:25:56.070Z,4.63
2022-12-04T10:29:03.565Z,4.57
2022-12-04T10:32:18.196Z,4.70
2022-12-04T10:35:23.150Z,4.48
2022-12-04T10:38:34.676Z,4.77
2022-12-04T10:41:44.612Z,4.87
2022-12-04T10:44:48.642Z,4.81
2022-12-04T10:47:53.533Z,4.57
2022-12-04T10:50:56.144Z,4.70
2022-12-04T10:53:58.774Z,4.81
2022-12-04T10:57:03.776Z,4.28
2022-12-04T11:00:26.891Z,4.55
2022-12-04T11:03:30.482Z,4.77
2022-12-04T11:06:33.617Z,4.64
2022-12-04T11:09:36.843Z,4.43
2022-12-04T11:12:39.509Z,4.59
2022-12-04T11:15:45.715Z,4.77
2022-12-04T11:18:50.237Z,4.35
2022-12-04T11:21:53.762Z,4.49
2022-12-04T11:24:58.827Z,4.58
2022-12-04T11:28:03.573Z,4.66
2022-12-04T11:31:10.371Z,4.65
2022-12-04T11:34:20.391Z,4.86
2022-12-04T11:37:26.915Z,5.01
2022-12-04T11:40:30.216Z,4.69
2022-12-04T11:43:33.934Z,4.95
2022-12-04T11:46:38.053Z,5.11
2022-12-04T11:49:43.816Z,4.75
2022-12-04T11:52:59.073Z,4.95
2022-12-04T11:56:21.086Z,4.70
2022-12-04T11:59:46.918Z,4.84
2022-12-04T12:03:11.009Z,4.44
2022-12-04T12:06:24.565Z,4.92
2022-12-04T12:09:36.017Z,4.92
2022-12-04T12:12:50.884Z,4.81
2022-12-04T12:16:01.563Z,4.98
2022-12-04T12:19:17.058Z,5.13
2022-12-04T12:22:37.258Z,4.96
2022-12-04T12:25:52.121Z,4.99
2022-12-04T12:29:11.523Z,5.20
2022-12-04T12:32:28.038Z,5.04
2022-12-04T12:35:36.891Z,5.19
2022-12-04T12:38:44.665Z,5.01
2022-12-04T12:41:51.774Z,4.94
2022-12-04T12:45:01.198Z,4.97
2022-12-04T12:48:11.960Z,5.02
2022-12-04T12:51:30.040Z,5.28
2022-12-04T12:54:41.711Z,5.03
2022-12-04T12:57:48.140Z,5.18
2022-12-04T13:01:07.858Z,5.09
2022-12-04T13:04:14.199Z,5.24
2022-12-04T13:07:28.844Z,5.12
2022-12-04T13:10:36.306Z,5.34
2022-12-04T13:13:44.133Z,5.19
2022-12-04T13:16:50.654Z,5.14
2022-12-04T13:19:56.281Z,5.13
2022-12-04T13:23:16.241Z,5.38
2022-12-04T13:26:34.269Z,5.43
2022-12-04T13:29:50.706Z,5.30
2022-12-04T13:33:35.709Z,5.46
2022-12-04T13:36:56.850Z,5.39
2022-12-04T13:40:33.353Z,5.32
2022-12-04T13:43:38.233Z,5.43
2022-12-04T13:46:43.911Z,5.27
2022-12-04T13:49:46.808Z,5.18
2022-12-04T13:52:49.429Z,5.47
2022-12-04T13:56:00.828Z,5.40
2022-12-04T13:59:08.145Z,5.12
2022-12-04T14:02:32.144Z,5.04
2022-12-04T14:05:42.474Z,5.36
2022-12-04T14:08:45.139Z,5.22
2022-12-04T14:11:53.840Z,5.28
2022-12-04T14:14:59.316Z,5.04
2022-12-04T14:18:04.537Z,5.36
2022-12-04T14:21:07.522Z,5.29
2022-12-04T14:24:17.605Z,5.17
2022-12-04T14:27:43.274Z,5.29
2022-12-04T14:30:57.828Z,5.46
2022-12-04T14:34:04.336Z,5.41
2022-12-04T14:37:07.967Z,5.19
2022-12-04T14:40:20.832Z,5.15
2022-12-04T14:43:28.100Z,5.24
2022-12-04T14:46:43.803Z,5.26
2022-12-04T14:50:10.278Z,5.29
2022-12-04T14:53:24.630Z,5.57
2022-12-04T14:56:48.864Z,5.67
2022-12-04T14:59:54.869Z,5.59
2022-12-04T15:03:00.715Z,5.59
2022-12-04T15:06:06.006Z,5.30
2022-12-04T15:09:35.117Z,5.09
2022-12-04T15:12:44.073Z,5.20
2022-12-04T15:15:48.346Z,5.48
2022-12-04T15:18:54.893Z,5.61
2022-12-04T15:21:57.672Z,5.71
2022-12-04T15:25:00.559Z,5.48
2022-12-04T15:28:08.833Z,5.53
2022-12-04T15:31:18.298Z,5.47
2022-12-04T15:34:27.573Z,5.59
2022-12-04T15:37:32.454Z,5.55
2022-12-04T15:40:35.073Z,5.23
2022-12-04T15:43:41.766Z,5.10
2022-12-04T15:46:45.966Z,5.11
2022-12-04T15:49:50.234Z,5.20
2022-12-04T15:52:58.334Z,5.27
2022-12-04T15:56:03.805Z,5.39
2022-12-04T15:59:06.460Z,5.42
2022-12-04T16:02:26.417Z,5.80
2022-12-04T16:05:34.888Z,5.65
2022-12-04T16:08:39.589Z,5.57
2022-12-04T16:11:42.823Z,5.71
2022-12-04T16:14:45.450Z,5.69
2022-12-04T16:17:49.450Z,5.60
2022-12-04T16:20:52.104Z,5.62
2022-12-04T16:23:54.701Z,5.47
2022-12-04T16:26:59.964Z,5.52
2022-12-04T16:30:02.585Z,5.81
2022-12-04T16:33:06.689Z,5.82
2022-12-04T16:36:11.288Z,5.46
2022-12-04T16:39:14.079Z,5.56
2022-12-04T16:42:18.348Z,5.42
2022-12-04T16:45:27.242Z,5.63
2022-12-04T16:48:34.622Z,5.67
2022-12-04T16:51:39.444Z,5.73
2022-12-04T16:54:42.267Z,5.87
2022-12-04T16:57:44.877Z,5.92
2022-12-04T17:00:57.707Z,5.83
2022-12-04T17:04:01.957Z,5.82
2022-12-04T17:07:04.599Z,5.60
2022-12-04T17:10:08.386Z,5.59
2022-12-04T17:13:11.024Z,5.34
2022-12-04T17:16:15.219Z,5.49
2022-12-04T17:19:22.261Z,5.68
2022-12-04T17:22:26.424Z,5.55
2022-12-04T17:25:29.075Z,5.72
2022-12-04T17:28:32.556Z,5.76
2022-12-04T17:31:35.307Z,5.91
2022-12-04T17:34:39.502Z,5.70
2022-12-04T17:37:42.184Z,5.78
2022-12-04T17:40:44.781Z,5.82
2022-12-04T17:43:47.689Z,5.89
2022-12-04T17:46:50.413Z,5.96
2022-12-04T17:49:54.421Z,5.77
2022-12-04T17:52:57.072Z,5.98
2022-12-04T17:56:04.087Z,5.94
2022-12-04T17:59:07.218Z,6.05
2022-12-04T18:02:10.578Z,6.00
2022-12-04T18:05:14.905Z,5.84
2022-12-04T18:08:17.695Z,5.83
2022-12-04T18:11:21.480Z,6.00
2022-12-04T18:14:24.096Z,6.13
2022-12-04T18:17:26.754Z,6.11
2022-12-04T18:20:30.715Z,6.04
2022-12-04T18:23:33.545Z,6.09
2022-12-04T18:26:38.240Z,6.20
2022-12-04T18:29:41.125Z,6.23
2022-12-04T18:32:45.046Z,6.15
2022-12-04T18:35:55.745Z,5.79
2022-12-04T18:39:00.028Z,5.74
2022-12-04T18:42:02.649Z,5.97
2022-12-04T18:45:05.931Z,5.87
2022-12-04T18:48:08.576Z,6.09
2022-12-04T18:51:21.885Z,6.04
2022-12-04T18:54:25.037Z,6.08
2022-12-04T18:57:27.676Z,6.05
2022-12-04T19:00:30.342Z,6.06
2022-12-04T19:03:32.959Z,6.12
2022-12-04T19:06:38.627Z,6.09
2022-12-04T19:10:09.866Z,6.01
2022-12-04T19:13:03.924Z,6.11
2022-12-04T19:16:12.420Z,6.03
2022-12-04T19:19:16.815Z,6.09
2022-12-04T19:22:20.807Z,5.91
2022-12-04T19:25:23.410Z,5.96
2022-12-04T19:28:27.507Z,6.11
2022-12-04T19:31:34.150Z,6.13
2022-12-04T19:34:37.264Z,5.96
2022-12-04T19:37:42.156Z,5.75
2022-12-04T19:40:45.179Z,5.81
2022-12-04T19:43:49.897Z,5.97
2022-12-04T19:46:52.567Z,6.14
2022-12-04T19:49:55.388Z,6.08
2022-12-04T19:52:59.520Z,6.03
2022-12-04T19:56:07.536Z,5.78
2022-12-04T19:59:11.188Z,5.77
2022-12-04T20:02:14.332Z,5.75
2022-12-04T20:05:17.218Z,5.70
2022-12-04T20:08:21.382Z,5.69
2022-12-04T20:11:24.558Z,5.95
2022-12-04T20:14:27.224Z,5.96
2022-12-04T20:17:31.284Z,5.95
2022-12-04T20:20:33.900Z,5.77
2022-12-04T20:23:38.213Z,6.03
2022-12-04T20:26:42.761Z,5.93
2022-12-04T20:29:45.472Z,5.55
2022-12-04T20:32:48.097Z,5.78
2022-12-04T20:35:50.756Z,5.80
2022-12-04T20:38:58.080Z,6.03
2022-12-04T20:42:01.089Z,6.07
2022-12-04T20:45:03.770Z,5.88
2022-12-04T20:48:06.778Z,6.02
2022-12-04T20:51:09.417Z,6.07
2022-12-04T20:54:17.732Z,5.89
2022-12-04T20:57:20.393Z,5.94
2022-12-04T21:00:23.110Z,5.85
2022-12-04T21:03:25.753Z,5.97
2022-12-04T21:06:34.820Z,5.81
2022-12-04T21:09:39.199Z,5.66
2022-12-04T21:12:59.262Z,5.81
2022-12-04T21:16:02.118Z,5.80
2022-12-04T21:19:06.164Z,5.89
2022-12-04T21:22:08.829Z,5.89
2022-12-04T21:25:12.833Z,6.06
2022-12-04T21:28:15.475Z,5.70
2022-12-04T21:31:18.174Z,5.85
2022-12-04T21:34:20.925Z,6.02
2022-12-04T21:37:23.568Z,5.88
2022-12-04T21:40:27.531Z,5.86
2022-12-04T21:43:31.214Z,6.09
2022-12-04T21:46:34.036Z,5.60
2022-12-04T21:49:36.762Z,5.98
2022-12-04T21:52:39.410Z,6.01
2022-12-04T21:55:48.952Z,5.87
2022-12-04T21:58:52.166Z,5.62
2022-12-04T22:01:55.306Z,5.92
2022-12-04T22:04:58.049Z,6.09
2022-12-04T22:08:01.095Z,5.81
2022-12-04T22:11:07.703Z,5.59
2022-12-04T22:14:11.291Z,5.61
2022-12-04T22:17:13.932Z,5.89
2022-12-04T22:20:17.097Z,5.47
2022-12-04T22:23:19.708Z,5.79
2022-12-04T22:26:23.885Z,6.05
2022-12-04T22:29:49.147Z,5.85
2022-12-04T22:32:49.112Z,5.98
2022-12-04T22:35:51.728Z,5.84
2022-12-04T22:39:11.059Z,5.95
2022-12-04T22:42:15.287Z,5.81
2022-12-04T22:45:18.179Z,5.90
2022-12-04T22:48:20.784Z,5.96
2022-12-04T22:51:23.837Z,5.89
2022-12-04T22:54:26.477Z,5.84
2022-12-04T22:57:30.467Z,5.84
2022-12-04T23:00:33.089Z,5.77
2022-12-04T23:03:35.806Z,5.68
2022-12-04T23:06:38.818Z,5.85
2022-12-04T23:09:41.470Z,6.04
2022-12-04T23:12:45.445Z,5.86
2022-12-04T23:15:50.243Z,6.11
2022-12-04T23:18:53.811Z,6.18
2022-12-04T23:21:57.436Z,6.26
2022-12-04T23:25:00.215Z,6.27
2022-12-04T23:28:04.302Z,6.17
2022-12-04T23:31:07.136Z,5.96
2022-12-04T23:34:09.801Z,6.23
2022-12-04T23:37:12.474Z,6.31
2022-12-04T23:40:15.497Z,6.17
2022-12-04T23:43:20.499Z,6.03
2022-12-04T23:46:25.679Z,5.95
2022-12-04T23:49:28.520Z,5.76
2022-12-04T23:52:31.157Z,6.08
2022-12-04T23:55:34.673Z,6.12
2022-12-04T23:58:39.678Z,5.98
